Osprey, Florida
Current Conditions -  °F | °C
As of 3:15 PM on Friday 19 Dec 2014 (Local Time) from KVNC Reporting Station
Clear Clear  
Wind Chill: 68°   Ceiling: Unl
Heat Index: 68°   Visibility: 10mi
Dew Point: 55°   Wind: 6mph
Humidity: 64%   Direction: 270°W
Pressure: 30.04"   Gusts: NA
Location:  27.2°N, 82.49°W
Report Text: KVNC 192015Z AUTO 27005KT 10SM CLR 20/13 A3004 RMK AO2 TSNO
Loading
Personal Weather Stations






























Interactive Weather Map New forecast layout! Learn more

10-Day Weather Forecast

Advertisements
Track Severe Weather on mobile